createdAt,value
2023-05-14T00:01:55.690Z,99471.16
2023-05-14T00:04:23.822Z,99482.28
2023-05-14T00:06:51.525Z,99469.31
2023-05-14T00:09:19.257Z,99484.78
2023-05-14T00:11:46.638Z,99485.84
2023-05-14T00:14:14.541Z,99493.28
2023-05-14T00:16:46.343Z,99486.22
2023-05-14T00:19:13.912Z,99497.03
2023-05-14T00:21:41.468Z,99485.56
2023-05-14T00:24:10.070Z,99463.44
2023-05-14T00:30:25.385Z,99485.50
2023-05-14T00:32:56.912Z,99496.56
2023-05-14T00:35:24.514Z,99496.56
2023-05-14T00:38:01.163Z,99499.41
2023-05-14T00:40:42.379Z,99495.13
2023-05-14T00:43:09.785Z,99494.91
2023-05-14T00:45:40.138Z,99488.25
2023-05-14T00:48:10.220Z,99491.03
2023-05-14T00:50:37.817Z,99499.34
2023-05-14T00:53:10.489Z,99492.28
2023-05-14T00:55:42.383Z,99501.06
2023-05-14T00:58:14.720Z,99503.75
2023-05-14T01:00:42.679Z,99491.22
2023-05-14T01:03:10.438Z,99494.75
2023-05-14T01:06:00.256Z,99523.91
2023-05-14T01:08:59.867Z,99504.19
2023-05-14T01:11:37.013Z,99514.47
2023-05-14T01:14:17.196Z,99517.81
2023-05-14T01:16:51.221Z,99514.63
2023-05-14T01:19:45.585Z,99529.38
2023-05-14T01:22:13.546Z,99525.94
2023-05-14T01:24:41.282Z,99523.56
2023-05-14T01:27:19.173Z,99503.41
2023-05-14T01:29:57.860Z,99536.78
2023-05-14T01:32:27.006Z,99519.25
2023-05-14T01:34:59.817Z,99512.44
2023-05-14T01:37:31.069Z,99536.78
2023-05-14T01:40:01.744Z,99525.16
2023-05-14T01:42:31.737Z,99530.50
2023-05-14T01:45:07.104Z,99529.28
2023-05-14T01:47:37.496Z,99528.63
2023-05-14T01:50:49.948Z,99556.03
2023-05-14T01:53:17.262Z,99561.44
2023-05-14T01:55:48.492Z,99553.84
2023-05-14T01:58:18.400Z,99517.31
2023-05-14T02:00:50.724Z,99562.19
2023-05-14T02:03:20.368Z,99555.97
2023-05-14T02:05:47.788Z,99534.78
2023-05-14T02:08:15.046Z,99559.75
2023-05-14T02:10:42.307Z,99551.41
2023-05-14T02:13:12.114Z,99540.25
2023-05-14T02:15:39.893Z,99544.81
2023-05-14T02:18:07.766Z,99562.94
2023-05-14T02:20:35.185Z,99547.25
2023-05-14T02:23:02.663Z,99535.53
2023-05-14T02:25:32.484Z,99540.66
2023-05-14T02:27:59.717Z,99567.31
2023-05-14T02:30:27.025Z,99571.75
2023-05-14T02:33:05.193Z,99568.97
2023-05-14T02:35:33.348Z,99553.06
2023-05-14T02:38:03.092Z,99537.59
2023-05-14T02:40:30.550Z,99544.34
2023-05-14T02:43:04.791Z,99547.59
2023-05-14T02:48:56.247Z,99579.19
2023-05-14T02:51:23.786Z,99566.31
2023-05-14T02:53:51.111Z,99571.19
2023-05-14T02:56:18.598Z,99580.50
2023-05-14T02:58:48.511Z,99567.53
2023-05-14T03:01:19.058Z,99564.06
2023-05-14T03:03:46.935Z,99561.03
2023-05-14T03:06:14.688Z,99574.91
2023-05-14T03:08:44.310Z,99592.56
2023-05-14T03:11:26.403Z,99593.81
2023-05-14T03:13:56.347Z,99587.84
2023-05-14T03:16:23.560Z,99591.88
2023-05-14T03:18:51.086Z,99590.03
2023-05-14T03:21:20.943Z,99574.34
2023-05-14T03:23:48.429Z,99596.34
2023-05-14T03:26:15.970Z,99578.66
2023-05-14T03:28:46.215Z,99595.16
2023-05-14T03:31:16.426Z,99583.00
2023-05-14T03:33:47.300Z,99597.75
2023-05-14T03:36:17.199Z,99592.75
2023-05-14T03:38:45.849Z,99593.88
2023-05-14T03:41:28.811Z,99599.91
2023-05-14T03:44:07.583Z,99592.34
2023-05-14T03:50:04.774Z,99615.00
2023-05-14T03:52:32.550Z,99603.81
2023-05-14T03:55:01.061Z,99595.16
2023-05-14T03:57:28.905Z,99609.34
2023-05-14T03:59:56.169Z,99607.41
2023-05-14T04:02:23.706Z,99621.34
2023-05-14T04:04:59.878Z,99605.53
2023-05-14T04:07:30.518Z,99611.22
2023-05-14T04:10:04.304Z,99591.38
2023-05-14T04:12:35.139Z,99606.66
2023-05-14T04:15:02.686Z,99587.56
2023-05-14T04:17:36.475Z,99605.72
2023-05-14T04:20:04.677Z,99637.09
2023-05-14T04:22:34.843Z,99612.03
2023-05-14T04:25:02.366Z,99627.31
2023-05-14T04:27:32.081Z,99618.38
2023-05-14T04:30:22.375Z,99605.47
2023-05-14T04:32:50.175Z,99618.22
2023-05-14T04:35:17.879Z,99634.53
2023-05-14T04:37:45.540Z,99621.13
2023-05-14T04:40:17.348Z,99621.47
2023-05-14T04:42:45.564Z,99640.44
2023-05-14T04:45:15.403Z,99625.25
2023-05-14T04:47:46.571Z,99630.84
2023-05-14T04:50:14.579Z,99634.31
2023-05-14T04:52:46.761Z,99624.69
2023-05-14T04:55:14.381Z,99638.16
2023-05-14T04:57:45.816Z,99618.75
2023-05-14T05:03:03.786Z,99625.50
2023-05-14T05:05:31.527Z,99633.22
2023-05-14T05:08:22.733Z,99655.09
2023-05-14T05:10:53.869Z,99652.94
2023-05-14T05:16:48.189Z,99627.66
2023-05-14T05:19:15.865Z,99656.22
2023-05-14T05:21:43.620Z,99636.00
2023-05-14T05:24:15.175Z,99627.84
2023-05-14T05:26:45.190Z,99642.53
2023-05-14T05:29:16.689Z,99637.63
2023-05-14T05:31:47.727Z,99633.97
2023-05-14T05:34:15.229Z,99631.53
2023-05-14T05:36:52.779Z,99653.22
2023-05-14T05:39:20.382Z,99649.00
2023-05-14T05:41:47.615Z,99633.56
2023-05-14T05:44:15.248Z,99621.72
2023-05-14T05:46:46.249Z,99640.75
2023-05-14T05:49:14.027Z,99636.72
2023-05-14T05:51:43.655Z,99638.84
2023-05-14T05:54:11.373Z,99630.28
2023-05-14T05:56:41.183Z,99613.47
2023-05-14T05:59:08.651Z,99630.03
2023-05-14T06:01:46.694Z,99620.19
2023-05-14T06:04:21.435Z,99653.00
2023-05-14T06:06:48.916Z,99639.00
2023-05-14T06:09:19.425Z,99618.25
2023-05-14T06:11:47.086Z,99671.13
2023-05-14T06:14:19.097Z,99625.59
2023-05-14T06:16:50.308Z,99640.00
2023-05-14T06:19:19.465Z,99629.06
2023-05-14T06:22:00.215Z,99632.97
2023-05-14T06:24:30.277Z,99655.38
2023-05-14T06:27:02.130Z,99656.53
2023-05-14T06:29:29.937Z,99655.31
2023-05-14T06:32:05.271Z,99629.25
2023-05-14T06:35:33.507Z,99660.84
2023-05-14T06:38:03.790Z,99638.72
2023-05-14T06:40:31.601Z,99639.97
2023-05-14T06:42:59.256Z,99645.41
2023-05-14T06:45:26.855Z,99646.66
2023-05-14T06:47:56.936Z,99660.78
2023-05-14T06:50:27.191Z,99653.09
2023-05-14T06:52:57.624Z,99668.19
2023-05-14T07:02:59.142Z,99635.78
2023-05-14T07:05:31.179Z,99643.50
2023-05-14T07:08:01.901Z,99643.59
2023-05-14T07:10:54.641Z,99637.00
2023-05-14T07:13:42.208Z,99669.66
2023-05-14T07:16:12.290Z,99679.41
2023-05-14T07:18:39.896Z,99652.19
2023-05-14T07:21:12.328Z,99664.16
2023-05-14T07:23:42.459Z,99645.66
2023-05-14T07:26:10.216Z,99661.66
2023-05-14T07:28:37.875Z,99684.34
2023-05-14T07:31:10.408Z,99660.06
2023-05-14T07:33:38.687Z,99675.31
2023-05-14T07:36:06.522Z,99674.34
2023-05-14T07:38:34.178Z,99660.13
2023-05-14T07:41:05.334Z,99687.00
2023-05-14T07:43:33.184Z,99666.66
2023-05-14T07:46:32.835Z,99692.31
2023-05-14T07:49:00.785Z,99666.72
2023-05-14T07:51:29.005Z,99693.50
2023-05-14T07:53:57.255Z,99684.19
2023-05-14T07:57:00.800Z,99698.06
2023-05-14T07:59:28.292Z,99687.13
2023-05-14T08:01:55.644Z,99694.59
2023-05-14T08:04:29.104Z,99684.47
2023-05-14T08:07:00.878Z,99667.81
2023-05-14T08:09:28.626Z,99683.22
2023-05-14T08:12:08.001Z,99680.41
2023-05-14T08:14:35.892Z,99682.84
2023-05-14T08:17:50.421Z,99695.78
2023-05-14T08:20:18.133Z,99689.56
2023-05-14T08:22:45.927Z,99669.44
2023-05-14T08:25:15.034Z,99700.88
2023-05-14T08:27:45.188Z,99678.41
2023-05-14T08:30:14.248Z,99687.53
2023-05-14T08:32:44.764Z,99697.00
2023-05-14T08:35:12.743Z,99671.47
2023-05-14T08:37:40.443Z,99691.09
2023-05-14T08:40:10.763Z,99711.47
2023-05-14T08:42:42.311Z,99707.53
2023-05-14T08:45:52.149Z,99704.72
2023-05-14T08:48:23.509Z,99678.78
2023-05-14T08:54:46.094Z,99699.47
2023-05-14T08:57:17.337Z,99688.94
2023-05-14T08:59:51.912Z,99670.31
2023-05-14T09:02:24.047Z,99674.13
2023-05-14T09:05:05.574Z,99683.47
2023-05-14T09:07:33.816Z,99678.94
2023-05-14T09:10:07.894Z,99688.44
2023-05-14T09:12:41.228Z,99683.38
2023-05-14T09:15:09.313Z,99688.34
2023-05-14T09:17:50.649Z,99685.13
2023-05-14T09:23:58.746Z,99713.28
2023-05-14T09:29:58.114Z,99678.06
2023-05-14T09:32:36.370Z,99693.38
2023-05-14T09:38:37.429Z,99676.06
2023-05-14T09:44:49.804Z,99708.88
2023-05-14T09:47:19.034Z,99685.47
2023-05-14T09:49:59.452Z,99675.84
2023-05-14T09:52:51.388Z,99703.16
2023-05-14T09:55:46.399Z,99682.84
2023-05-14T10:01:19.603Z,99675.41
2023-05-14T10:03:54.237Z,99682.34
2023-05-14T10:06:33.045Z,99684.22
2023-05-14T10:09:09.110Z,99695.56
2023-05-14T10:11:49.940Z,99709.44
2023-05-14T10:17:47.591Z,99710.59
2023-05-14T10:20:28.294Z,99696.19
2023-05-14T10:23:07.775Z,99691.53
2023-05-14T10:25:45.429Z,99670.06
2023-05-14T10:28:22.285Z,99670.41
2023-05-14T10:31:28.034Z,99707.13
2023-05-14T10:34:00.070Z,99684.00
2023-05-14T10:36:30.220Z,99708.38
2023-05-14T10:39:06.251Z,99691.06
2023-05-14T10:41:34.799Z,99698.78
2023-05-14T10:44:12.388Z,99686.72
2023-05-14T10:46:49.875Z,99678.72
2023-05-14T10:49:42.408Z,99687.72
2023-05-14T10:52:16.542Z,99695.50
2023-05-14T10:54:52.575Z,99674.25
2023-05-14T10:57:23.384Z,99691.22
2023-05-14T11:03:19.433Z,99673.94
2023-05-14T11:05:47.541Z,99669.31
2023-05-14T11:08:26.507Z,99683.88
2023-05-14T11:14:10.177Z,99703.66
2023-05-14T11:16:38.731Z,99701.88
2023-05-14T11:19:22.385Z,99687.66
2023-05-14T11:36:04.595Z,99692.56
2023-05-14T11:38:34.543Z,99698.34
2023-05-14T11:58:34.994Z,99678.53
2023-05-14T12:06:36.801Z,99684.03
2023-05-14T12:09:23.293Z,99703.22
2023-05-14T12:16:15.306Z,99667.75
2023-05-14T12:19:07.421Z,99689.50
2023-05-14T12:26:13.145Z,99714.78
2023-05-14T12:36:21.775Z,99675.19
2023-05-14T12:40:04.718Z,99715.00
2023-05-14T12:42:55.471Z,99689.22
2023-05-14T12:45:42.216Z,99713.59
2023-05-14T12:49:23.016Z,99712.47
2023-05-14T12:55:22.678Z,99704.28
2023-05-14T12:58:09.431Z,99699.19
2023-05-14T13:12:31.610Z,99728.34
2023-05-14T13:18:31.416Z,99702.88
2023-05-14T13:21:08.486Z,99684.22
2023-05-14T13:23:54.190Z,99691.81
2023-05-14T13:29:24.142Z,99684.56
2023-05-14T13:32:01.666Z,99688.91
2023-05-14T13:34:48.968Z,99687.38
2023-05-14T13:44:49.886Z,99703.59
2023-05-14T13:47:21.973Z,99695.78
2023-05-14T13:49:49.897Z,99679.25
2023-05-14T13:52:18.884Z,99724.44
2023-05-14T13:54:49.965Z,99715.63
2023-05-14T13:57:27.474Z,99711.72
2023-05-14T14:00:14.594Z,99705.47
2023-05-14T14:03:05.438Z,99720.69
2023-05-14T14:05:45.926Z,99678.03
2023-05-14T14:08:23.227Z,99683.94
2023-05-14T14:10:55.781Z,99685.03
2023-05-14T14:13:26.569Z,99694.25
2023-05-14T14:16:18.866Z,99721.66
2023-05-14T14:18:47.007Z,99700.91
2023-05-14T14:21:21.479Z,99684.16
2023-05-14T14:23:49.610Z,99707.34
2023-05-14T14:26:21.250Z,99702.72
2023-05-14T14:28:52.934Z,99720.59
2023-05-14T14:31:24.965Z,99707.09
2023-05-14T14:33:58.831Z,99684.34
2023-05-14T14:36:26.292Z,99724.50
2023-05-14T14:39:16.533Z,99733.25
2023-05-14T14:41:47.997Z,99713.28
2023-05-14T14:44:24.342Z,99692.69
2023-05-14T14:46:58.162Z,99698.81
2023-05-14T14:49:28.978Z,99702.66
2023-05-14T14:52:00.550Z,99688.03
2023-05-14T14:54:41.420Z,99699.56
2023-05-14T14:57:12.910Z,99702.84
2023-05-14T15:03:24.582Z,99702.19
2023-05-14T15:19:53.696Z,99729.31
2023-05-14T15:22:24.694Z,99692.84
2023-05-14T15:24:52.598Z,99706.75
2023-05-14T15:27:20.655Z,99708.75
2023-05-14T15:30:26.505Z,99726.59
2023-05-14T15:33:28.174Z,99735.72
2023-05-14T15:36:17.243Z,99725.94
2023-05-14T15:38:46.459Z,99691.28
2023-05-14T15:44:53.628Z,99718.91
2023-05-14T15:47:21.812Z,99712.03
2023-05-14T15:50:48.300Z,99737.03
2023-05-14T15:53:20.034Z,99696.66
2023-05-14T15:56:30.280Z,99740.97
2023-05-14T16:05:29.500Z,99705.59
2023-05-14T16:08:05.091Z,99700.78
2023-05-14T16:10:32.690Z,99723.53
2023-05-14T16:13:00.567Z,99695.72
2023-05-14T16:15:32.268Z,99708.91
2023-05-14T16:18:11.285Z,99716.63
2023-05-14T16:20:39.089Z,99727.81
2023-05-14T16:23:07.020Z,99741.22
2023-05-14T16:30:00.190Z,99752.19
2023-05-14T16:32:37.550Z,99739.44
2023-05-14T16:35:14.463Z,99742.47
2023-05-14T16:37:52.000Z,99726.09
2023-05-14T16:40:22.386Z,99748.47
2023-05-14T16:42:52.552Z,99738.63
2023-05-14T16:45:25.325Z,99734.75
2023-05-14T16:48:02.444Z,99755.94
2023-05-14T16:50:39.756Z,99740.66
2023-05-14T16:53:08.615Z,99729.03
2023-05-14T16:55:46.298Z,99733.03
2023-05-14T16:58:13.924Z,99755.28
2023-05-14T17:00:41.564Z,99759.53
2023-05-14T17:03:11.870Z,99740.69
2023-05-14T17:05:45.424Z,99740.25
2023-05-14T17:08:24.856Z,99773.38
2023-05-14T17:10:57.162Z,99770.53
2023-05-14T17:13:25.307Z,99765.09
2023-05-14T17:15:56.288Z,99762.84
2023-05-14T17:18:43.676Z,99769.53
2023-05-14T17:21:31.510Z,99779.94
2023-05-14T17:24:50.453Z,99785.84
2023-05-14T17:27:21.666Z,99787.97
2023-05-14T17:29:56.786Z,99764.41
2023-05-14T17:32:24.917Z,99789.03
2023-05-14T17:35:05.104Z,99799.44
2023-05-14T17:37:34.370Z,99769.31
2023-05-14T17:40:01.754Z,99790.53
2023-05-14T17:42:29.622Z,99798.94
2023-05-14T17:44:57.255Z,99781.13
2023-05-14T17:47:25.181Z,99778.69
2023-05-14T17:49:53.400Z,99818.84
2023-05-14T17:52:50.789Z,99790.09
2023-05-14T17:58:47.842Z,99816.31
2023-05-14T18:01:27.067Z,99822.78
2023-05-14T18:05:31.661Z,99793.44
2023-05-14T18:08:06.994Z,99829.59
2023-05-14T18:11:23.038Z,99838.44
2023-05-14T18:13:55.772Z,99822.16
2023-05-14T18:17:16.747Z,99834.53
2023-05-14T18:23:12.079Z,99803.19
2023-05-14T18:25:44.340Z,99822.28
2023-05-14T18:28:12.370Z,99816.66
2023-05-14T18:30:42.442Z,99808.75
2023-05-14T18:33:15.675Z,99816.91
2023-05-14T18:36:00.079Z,99836.88
2023-05-14T18:38:30.502Z,99823.44
2023-05-14T18:41:00.555Z,99828.97
2023-05-14T18:43:30.532Z,99829.88
2023-05-14T18:46:01.214Z,99826.69
2023-05-14T18:48:31.507Z,99827.44
2023-05-14T18:50:59.473Z,99811.66
2023-05-14T18:53:27.579Z,99828.63
2023-05-14T18:55:57.668Z,99806.78
2023-05-14T18:58:27.287Z,99826.84
2023-05-14T19:01:00.675Z,99803.88
2023-05-14T19:03:30.275Z,99813.59
2023-05-14T19:06:04.888Z,99838.53
2023-05-14T19:08:33.125Z,99815.47
2023-05-14T19:11:09.583Z,99805.59
2023-05-14T19:13:37.339Z,99826.50
2023-05-14T19:16:16.837Z,99807.88
2023-05-14T19:21:31.274Z,99814.34
2023-05-14T19:23:58.691Z,99812.06
2023-05-14T19:26:26.189Z,99839.16
2023-05-14T19:28:58.732Z,99818.34
2023-05-14T19:31:31.467Z,99816.28
2023-05-14T19:37:01.245Z,99848.44
2023-05-14T19:43:12.661Z,99819.34
2023-05-14T19:49:27.647Z,99824.19
2023-05-14T19:55:20.518Z,99847.06
2023-05-14T19:58:02.217Z,99848.69
2023-05-14T20:03:30.223Z,99820.66
2023-05-14T20:14:10.128Z,99850.84
2023-05-14T20:16:53.572Z,99801.75
2023-05-14T20:19:34.196Z,99821.78
2023-05-14T20:22:10.677Z,99800.09
2023-05-14T20:25:28.765Z,99840.44
2023-05-14T20:27:56.575Z,99813.63
2023-05-14T20:30:29.250Z,99798.41
2023-05-14T20:32:57.466Z,99798.41
2023-05-14T20:35:25.453Z,99828.38
2023-05-14T20:38:00.845Z,99834.56
2023-05-14T20:40:50.724Z,99788.28
2023-05-14T20:43:30.157Z,99794.78
2023-05-14T20:46:01.594Z,99812.88
2023-05-14T20:48:34.365Z,99797.00
2023-05-14T20:54:30.475Z,99798.19
2023-05-14T20:57:00.496Z,99812.94
2023-05-14T20:59:47.120Z,99793.28
2023-05-14T21:02:20.441Z,99833.22
2023-05-14T21:05:14.174Z,99814.22
2023-05-14T21:11:04.986Z,99807.13
2023-05-14T21:13:32.454Z,99811.97
2023-05-14T21:16:02.493Z,99814.66
2023-05-14T21:18:32.964Z,99821.06
2023-05-14T21:21:00.858Z,99819.22
2023-05-14T21:23:29.408Z,99792.19
2023-05-14T21:25:57.231Z,99804.09
2023-05-14T21:28:26.938Z,99828.50
2023-05-14T21:30:56.627Z,99810.75
2023-05-14T21:33:24.419Z,99823.75
2023-05-14T21:35:52.207Z,99817.63
2023-05-14T21:38:20.109Z,99797.75
2023-05-14T21:40:47.684Z,99794.88
2023-05-14T21:43:15.724Z,99799.03
2023-05-14T21:45:45.552Z,99816.25
2023-05-14T21:48:13.484Z,99798.94
2023-05-14T21:50:41.103Z,99815.22
2023-05-14T21:53:08.519Z,99792.75
2023-05-14T21:55:38.504Z,99813.78
2023-05-14T21:58:11.158Z,99806.50
2023-05-14T22:00:45.316Z,99805.88
2023-05-14T22:03:16.121Z,99809.34
2023-05-14T22:05:45.944Z,99806.28
2023-05-14T22:08:17.646Z,99798.66
2023-05-14T22:10:46.904Z,99796.03
2023-05-14T22:13:21.501Z,99823.94
2023-05-14T22:19:33.345Z,99831.94
2023-05-14T22:22:00.910Z,99814.88
2023-05-14T22:24:28.149Z,99791.78
2023-05-14T22:26:58.536Z,99808.16
2023-05-14T22:29:26.433Z,99816.13
2023-05-14T22:31:53.898Z,99830.41
2023-05-14T22:34:26.095Z,99824.72
2023-05-14T22:36:53.635Z,99822.03
2023-05-14T22:39:27.412Z,99801.13
2023-05-14T22:42:05.768Z,99809.31
2023-05-14T22:44:38.292Z,99799.72
2023-05-14T22:47:12.110Z,99795.91
2023-05-14T22:52:45.962Z,99820.97
2023-05-14T22:55:15.950Z,99794.66
2023-05-14T22:57:49.957Z,99816.78
2023-05-14T23:00:37.641Z,99820.25
2023-05-14T23:03:14.024Z,99809.97
2023-05-14T23:05:41.722Z,99797.53
2023-05-14T23:08:19.260Z,99798.75
2023-05-14T23:11:01.969Z,99799.91
2023-05-14T23:13:29.371Z,99803.25
2023-05-14T23:19:52.636Z,99829.19
2023-05-14T23:22:25.201Z,99804.56
2023-05-14T23:25:16.903Z,99804.31
2023-05-14T23:27:47.927Z,99793.63
2023-05-14T23:30:20.328Z,99835.66
2023-05-14T23:32:55.301Z,99815.13
2023-05-14T23:35:23.225Z,99795.31
2023-05-14T23:37:57.845Z,99837.44
2023-05-14T23:40:25.515Z,99838.47
2023-05-14T23:43:33.109Z,99828.63
2023-05-14T23:46:19.204Z,99815.75
2023-05-14T23:49:08.627Z,99829.06
2023-05-14T23:52:01.411Z,99805.78
2023-05-14T23:57:34.049Z,99845.53
